Time;durP1;ratioP1;P1;durP2;ratioP2;P2;SDS_P1;SDS_P2;PMS_P1;PMS_P2;Temp;Humidity;BMP_temperature;BMP_pressure;BME280_temperature;BME280_humidity;BME280_pressure;Samples;Min_cycle;Max_cycle;Signal;HPM_P1;HPM_P2
2022/09/04 12:02:25;;;;;;;4.10;2.85;;;22.40;92.20;;;20.80;62.70;100652.06;10334135;27;99567;-93
2022/09/04 12:08:03;;;;;;;3.42;2.70;;;22.40;92.30;;;20.91;61.80;100654.03;10330137;28;98288;-94
2022/09/04 12:13:46;;;;;;;4.03;2.80;;;22.50;92.00;;;20.84;61.01;100647.88;10347507;28;98693;-93
2022/09/04 12:19:49;;;;;;;3.28;2.88;;;22.50;91.40;;;20.90;60.98;100638.88;10363151;28;96867;-93
2022/09/04 12:25:45;;;;;;;6.05;3.00;;;22.60;91.20;;;20.97;61.45;100644.19;10261492;28;96629;-94
2022/09/04 12:31:34;;;;;;;3.53;3.00;;;22.60;91.20;;;20.96;60.38;100642.56;10327296;28;96632;-94
2022/09/04 12:37:10;;;;;;;4.38;2.78;;;22.60;90.80;;;20.91;60.39;100637.00;10337768;28;96738;-94
2022/09/04 12:42:40;;;;;;;5.75;3.40;;;22.60;90.60;;;20.85;60.85;100641.41;10357549;28;97305;-94
2022/09/04 12:48:07;;;;;;;4.53;3.10;;;22.60;90.60;;;20.84;60.85;100631.66;10340967;28;98307;-93
2022/09/04 12:53:36;;;;;;;4.72;3.40;;;22.60;90.60;;;20.87;61.08;100635.78;10353312;28;97398;-93
2022/09/04 12:59:22;;;;;;;3.67;2.70;;;22.60;90.60;;;20.95;61.77;100619.28;10345191;28;96783;-95
2022/09/04 13:05:08;;;;;;;6.50;2.67;;;22.60;90.80;;;21.10;61.15;100622.41;10339323;28;96679;-95
2022/09/04 13:10:55;;;;;;;3.90;3.13;;;22.70;90.80;;;21.26;60.62;100619.09;10341274;28;97350;-94
2022/09/04 13:16:10;;;;;;;4.20;3.15;;;22.90;90.50;;;21.43;60.47;100613.09;10336183;28;97351;-93
2022/09/04 13:21:22;;;;;;;4.80;3.25;;;23.10;90.20;;;21.55;59.18;100609.38;10377405;28;96715;-95
2022/09/04 13:27:06;;;;;;;4.35;2.92;;;23.20;89.20;;;21.92;58.70;100598.41;10377867;28;96686;-93
2022/09/04 13:32:58;;;;;;;4.10;2.42;;;23.50;88.90;;;22.13;56.32;100597.91;10364527;28;97459;-95
2022/09/04 13:38:25;;;;;;;2.90;2.50;;;23.70;87.10;;;22.27;56.97;100597.66;10341483;28;97518;-95
2022/09/04 13:44:04;;;;;;;3.95;2.80;;;23.90;86.50;;;22.27;56.34;100589.53;10339631;28;98048;-95
2022/09/04 13:49:36;;;;;;;3.90;3.00;;;24.00;85.40;;;22.26;56.48;100590.59;10355346;28;96895;-96
2022/09/04 13:54:45;;;;;;;3.85;2.50;;;23.90;85.10;;;22.08;56.02;100602.34;10336749;28;96860;-94
2022/09/04 13:59:49;;;;;;;3.60;2.97;;;23.90;84.30;;;22.00;57.47;100594.53;10321382;28;97357;-95
2022/09/04 14:05:16;;;;;;;2.97;2.55;;;23.70;85.30;;;21.89;57.87;100597.00;10355410;28;97175;-94
2022/09/04 14:10:53;;;;;;;4.50;3.00;;;23.60;85.60;;;21.84;58.11;100591.47;10375786;28;97283;-93
2022/09/04 14:16:14;;;;;;;3.70;2.78;;;23.60;85.90;;;21.76;59.00;100586.38;10343429;28;97725;-94
2022/09/04 14:22:20;;;;;;;4.15;3.15;;;23.50;86.80;;;21.65;59.20;100597.97;10337199;28;96712;-94
2022/09/04 14:28:45;;;;;;;4.43;3.00;;;23.40;87.20;;;21.55;60.33;100598.56;10355224;28;96597;-93
2022/09/04 14:34:26;;;;;;;4.57;2.63;;;23.20;87.60;;;21.56;60.35;100592.09;10091423;28;96804;-93
2022/09/04 14:39:51;;;;;;;2.90;2.22;;;23.20;88.00;;;21.48;60.19;100592.44;10372087;28;97644;-93
2022/09/04 14:45:18;;;;;;;4.05;2.65;;;23.20;88.00;;;21.40;61.42;100598.16;10347260;28;96542;-93
2022/09/04 14:50:27;;;;;;;4.03;2.50;;;23.10;89.00;;;21.33;61.86;100600.94;10360327;28;97099;-92
2022/09/04 14:55:33;;;;;;;3.78;3.33;;;23.00;89.60;;;21.20;62.28;100595.69;10347305;28;96543;-93
2022/09/04 15:01:07;;;;;;;4.72;3.00;;;22.90;90.00;;;21.17;62.09;100606.97;10340231;28;97276;-93
2022/09/04 15:06:44;;;;;;;4.78;2.70;;;22.80;90.10;;;21.16;61.67;100608.00;10360476;28;96433;-96
2022/09/04 15:12:31;;;;;;;3.75;2.60;;;22.80;89.90;;;21.15;62.14;100608.22;10378129;28;97400;-96
2022/09/04 15:17:43;;;;;;;5.63;2.63;;;22.80;90.20;;;21.22;62.64;100603.56;10358320;28;96974;-88
2022/09/04 15:23:24;;;;;;;2.70;2.17;;;22.80;90.50;;;21.60;62.59;100609.53;10360553;28;96953;-86
2022/09/04 15:28:52;;;;;;;3.17;2.47;;;23.20;90.50;;;21.91;61.24;100608.41;10356882;28;97764;-86
2022/09/04 15:34:06;;;;;;;4.93;2.50;;;23.60;89.80;;;21.97;60.01;100605.84;10350276;28;96949;-87
2022/09/04 15:39:35;;;;;;;3.28;2.53;;;23.70;88.40;;;21.86;59.93;100618.28;10351905;28;97459;-89
2022/09/04 15:44:45;;;;;;;3.70;2.42;;;23.60;87.60;;;21.68;60.33;100623.75;10359767;28;98282;-88
2022/09/04 15:49:57;;;;;;;4.05;2.35;;;23.40;88.20;;;21.57;60.73;100628.06;10353482;28;97424;-88
2022/09/04 15:55:44;;;;;;;4.50;2.50;;;23.30;88.40;;;21.37;61.13;100617.53;10347528;28;98234;-87
2022/09/04 16:01:04;;;;;;;2.75;2.30;;;23.10;88.50;;;21.25;60.92;100614.75;10330960;28;97043;-87
2022/09/04 16:06:25;;;;;;;3.45;2.30;;;22.90;88.50;;;21.09;60.12;100620.78;10357058;28;97502;-88
2022/09/04 16:11:54;;;;;;;3.53;2.42;;;22.80;88.00;;;21.05;60.19;100614.16;10336761;28;97596;-91
2022/09/04 16:17:05;;;;;;;3.50;2.50;;;22.70;87.80;;;21.02;60.87;100609.22;10360015;28;96734;-87
2022/09/04 16:22:42;;;;;;;4.15;2.30;;;22.60;87.90;;;21.00;60.80;100614.03;10337901;28;96614;-87
2022/09/04 16:28:13;;;;;;;5.07;1.95;;;22.60;87.90;;;20.94;59.88;100610.38;10337538;28;96731;-92
2022/09/04 16:33:30;;;;;;;3.13;2.50;;;22.60;87.50;;;20.92;59.98;100614.31;10354449;28;97501;-93
2022/09/04 16:39:18;;;;;;;2.90;2.08;;;22.50;88.30;;;20.92;61.72;100609.75;10334650;28;98149;-92
2022/09/04 16:44:45;;;;;;;3.80;2.38;;;22.50;88.80;;;20.89;61.77;100614.78;10306107;28;96975;-92
2022/09/04 16:50:13;;;;;;;3.05;2.20;;;22.40;89.60;;;20.82;61.67;100612.16;10354078;28;96719;-92
2022/09/04 16:55:35;;;;;;;3.53;2.53;;;22.30;89.00;;;20.75;61.79;100609.53;10372972;28;97372;-91
2022/09/04 17:01:15;;;;;;;3.55;2.85;;;22.20;89.40;;;20.70;62.30;100611.25;10341917;28;98428;-91
2022/09/04 17:06:56;;;;;;;4.93;3.20;;;22.20;90.00;;;20.61;63.41;100612.59;10346413;28;96648;-91
2022/09/04 17:12:32;;;;;;;3.43;2.57;;;22.10;90.40;;;20.52;63.97;100615.59;10343323;28;96584;-90
2022/09/04 17:17:40;;;;;;;6.90;3.28;;;22.00;90.80;;;20.39;64.68;100614.84;10369299;28;98353;-91
2022/09/04 17:22:59;;;;;;;7.78;3.30;;;21.90;91.20;;;20.24;65.43;100623.31;10357339;28;97141;-91
2022/09/04 17:28:37;;;;;;;5.18;3.38;;;21.70;91.60;;;20.03;65.94;100630.75;10358745;28;96786;-91
2022/09/04 17:34:19;;;;;;;5.22;3.00;;;21.50;92.00;;;19.77;66.79;100642.53;10357965;28;98730;-91
2022/09/04 17:40:06;;;;;;;5.55;2.85;;;21.30;92.50;;;19.53;67.89;100657.56;10346532;28;96589;-92
2022/09/04 17:46:14;;;;;;;4.93;3.03;;;21.10;92.80;;;19.33;68.17;100664.94;10357729;28;96789;-92
2022/09/04 17:51:30;;;;;;;4.80;3.00;;;20.80;93.10;;;19.10;68.56;100680.75;10365962;28;96712;-90
2022/09/04 17:56:56;;;;;;;4.03;2.83;;;20.60;93.40;;;18.92;69.42;100686.81;10370003;28;98350;-92
2022/09/04 18:02:33;;;;;;;4.18;2.75;;;20.40;93.70;;;18.71;70.31;100699.50;10336982;28;96768;-92
2022/09/04 18:07:52;;;;;;;4.63;3.67;;;20.30;94.00;;;18.59;70.74;100700.28;10329380;28;98318;-92
2022/09/04 18:13:18;;;;;;;4.95;3.58;;;20.20;94.20;;;18.50;71.17;100713.13;10342683;28;98055;-92
2022/09/04 18:18:47;;;;;;;5.10;3.30;;;20.10;94.50;;;18.36;71.80;100719.56;10369880;28;96543;-92
2022/09/04 18:24:00;;;;;;;3.65;3.03;;;19.90;94.90;;;18.18;72.22;100726.38;10354434;28;96676;-91
2022/09/04 18:29:36;;;;;;;5.07;3.72;;;19.70;95.20;;;18.02;72.99;100731.28;10348734;28;97309;-93
2022/09/04 18:35:12;;;;;;;3.67;2.83;;;19.60;95.60;;;17.92;73.18;100742.44;10346107;28;96735;-93
2022/09/04 18:40:45;;;;;;;3.72;3.08;;;19.40;95.80;;;17.84;73.16;100748.00;10335339;28;97163;-93
2022/09/04 18:46:10;;;;;;;5.93;3.67;;;19.30;95.90;;;17.77;73.68;100760.59;10353930;28;96615;-93
2022/09/04 18:51:56;;;;;;;4.78;3.08;;;19.30;96.00;;;17.69;73.28;100763.41;10357561;28;96906;-92
2022/09/04 18:57:11;;;;;;;3.65;3.00;;;19.20;96.00;;;17.60;73.53;100762.75;10344853;28;96680;-93
2022/09/04 19:02:28;;;;;;;3.60;3.15;;;19.10;96.00;;;17.48;73.46;100772.41;10336649;28;97523;-92
2022/09/04 19:07:46;;;;;;;5.93;4.07;;;19.00;96.30;;;17.35;73.88;100775.88;10353131;28;98721;-92
2022/09/04 19:12:51;;;;;;;4.88;3.60;;;18.90;96.30;;;17.27;74.06;100776.88;10355018;28;97097;-92
2022/09/04 19:18:06;;;;;;;4.13;3.70;;;18.80;96.40;;;17.19;73.97;100770.81;10360533;28;97171;-91
2022/09/04 19:23:24;;;;;;;4.80;3.40;;;18.70;96.50;;;17.10;74.33;100768.28;10328776;28;97345;-91
2022/09/04 19:28:52;;;;;;;4.28;3.35;;;18.60;96.60;;;17.04;74.44;100777.13;10374934;28;96930;-91
2022/09/04 19:34:17;;;;;;;4.22;3.20;;;18.60;96.70;;;16.97;74.55;100786.13;10339326;28;98533;-92
2022/09/04 19:39:57;;;;;;;3.30;2.97;;;18.50;96.70;;;16.88;74.65;100784.63;10377556;28;96499;-91
2022/09/04 19:45:44;;;;;;;4.85;2.88;;;18.40;96.80;;;16.76;75.04;100781.66;10353614;28;96537;-91
2022/09/04 19:51:24;;;;;;;4.60;3.17;;;18.30;97.00;;;16.65;75.37;100784.81;10364934;28;96906;-92
2022/09/04 19:56:57;;;;;;;5.35;3.05;;;18.20;97.30;;;16.54;75.81;100784.31;10367568;28;96821;-91
2022/09/04 20:02:44;;;;;;;4.85;3.53;;;18.10;97.50;;;16.48;75.82;100782.41;10361064;28;96710;-91
2022/09/04 20:07:56;;;;;;;3.67;3.15;;;18.00;97.60;;;16.44;76.09;100780.31;10342707;28;97722;-91
2022/09/04 20:13:26;;;;;;;4.70;3.70;;;18.00;97.70;;;16.39;76.10;100774.69;10362418;28;96582;-91
2022/09/04 20:19:02;;;;;;;3.88;3.40;;;17.90;97.80;;;16.30;76.44;100782.84;10355963;28;97562;-91
2022/09/04 20:24:17;;;;;;;4.78;3.45;;;17.80;98.00;;;16.22;76.78;100782.97;10363574;28;96693;-92
2022/09/04 20:29:23;;;;;;;5.70;3.72;;;17.70;98.10;;;16.12;77.17;100774.41;10351258;28;96643;-91
2022/09/04 20:35:02;;;;;;;4.90;3.60;;;17.70;98.40;;;16.05;77.42;100774.34;10371857;28;98251;-92
2022/09/04 20:40:26;;;;;;;3.50;3.13;;;17.60;98.50;;;15.96;77.72;100775.47;10357480;28;98299;-92
2022/09/04 20:45:51;;;;;;;4.43;3.53;;;17.50;98.80;;;15.89;77.99;100768.38;10357518;28;96667;-91
2022/09/04 20:51:26;;;;;;;6.15;3.35;;;17.40;99.00;;;15.81;78.12;100781.88;10339003;28;96695;-91
2022/09/04 20:57:01;;;;;;;5.45;3.67;;;17.30;99.10;;;15.75;78.32;100792.34;10344117;28;98339;-92
2022/09/04 21:02:53;;;;;;;7.00;3.35;;;17.30;99.30;;;15.69;78.73;100785.03;10373367;28;96753;-92
2022/09/04 21:08:34;;;;;;;;;;;17.20;99.50;;;15.67;79.38;100797.81;10363117;28;96571;-92
2022/09/04 21:13:49;;;;;;;4.70;3.50;;;17.20;99.80;;;15.64;79.53;100794.66;10334200;28;96818;-91
2022/09/04 21:19:36;;;;;;;3.60;3.17;;;17.20;99.80;;;15.62;79.76;100794.84;10334081;28;96815;-91
2022/09/04 21:25:27;;;;;;;3.50;3.20;;;17.20;99.90;;;15.60;80.01;100804.91;10318852;28;98603;-91
2022/09/04 21:30:56;;;;;;;4.43;4.03;;;17.20;99.90;;;15.55;79.89;100809.16;10346913;28;97539;-91
2022/09/04 21:36:13;;;;;;;5.38;3.60;;;17.10;99.90;;;15.49;79.98;100811.53;10358795;28;96605;-92
2022/09/04 21:42:10;;;;;;;4.45;3.67;;;17.10;99.90;;;15.47;80.36;100810.03;10340921;28;98374;-91
2022/09/04 21:47:41;;;;;;;4.90;4.15;;;17.00;99.90;;;15.46;80.57;100813.75;10358210;28;96621;-91
2022/09/04 21:52:58;;;;;;;5.95;4.18;;;17.00;99.90;;;15.44;81.00;100815.78;10369978;28;98172;-92
2022/09/04 21:58:20;;;;;;;5.57;4.20;;;17.00;99.90;;;15.44;81.17;100818.47;10371638;28;97124;-92
2022/09/04 22:04:01;;;;;;;6.05;3.47;;;17.00;99.90;;;15.37;81.03;100821.06;10370613;28;96815;-92
2022/09/04 22:09:31;;;;;;;8.68;3.58;;;17.00;99.90;;;15.32;81.38;100819.94;10338158;28;96652;-92
2022/09/04 22:15:01;;;;;;;3.47;3.17;;;16.90;99.90;;;15.22;81.66;100810.31;10347418;28;96603;-91
2022/09/04 22:20:51;;;;;;;4.47;3.35;;;16.80;99.90;;;15.19;81.64;100816.06;10354873;28;96719;-91
2022/09/04 22:26:40;;;;;;;4.32;3.10;;;16.80;99.90;;;15.11;81.75;100826.81;10371038;28;96633;-91
2022/09/04 22:32:33;;;;;;;3.95;3.55;;;16.70;99.90;;;15.02;82.08;100827.94;10334841;28;97020;-92
2022/09/04 22:38:14;;;;;;;4.07;3.35;;;16.60;99.90;;;14.92;82.41;100825.50;10373887;28;96686;-91
2022/09/04 22:43:25;;;;;;;5.63;3.90;;;16.50;99.90;;;14.88;82.47;100826.88;10381875;28;97539;-91
2022/09/04 22:49:28;;;;;;;4.13;3.50;;;16.50;99.90;;;14.82;82.63;100824.94;10370189;28;96751;-91
2022/09/04 22:55:01;;;;;;;4.32;3.92;;;16.40;99.90;;;14.72;82.69;100835.88;10340284;28;96750;-92
2022/09/04 23:00:24;;;;;;;5.25;3.85;;;16.30;99.90;;;14.57;82.85;100820.78;10385404;28;97254;-91
2022/09/04 23:06:24;;;;;;;3.85;3.40;;;16.20;99.90;;;14.57;83.15;100826.94;10352441;28;96666;-91
2022/09/04 23:12:48;;;;;;;3.47;3.05;;;16.20;99.90;;;14.48;83.27;100825.34;10165945;28;96800;-92
2022/09/04 23:18:57;;;;;;;3.50;3.20;;;16.10;99.90;;;14.45;83.66;100828.34;10351200;28;96713;-92
2022/09/04 23:25:14;;;;;;;3.53;3.22;;;16.00;99.90;;;14.44;83.90;100826.69;10347361;28;96695;-91
2022/09/04 23:31:19;;;;;;;3.38;3.05;;;16.00;99.90;;;14.46;83.87;100822.00;10319862;28;96793;-92
2022/09/04 23:37:00;;;;;;;3.72;2.78;;;16.00;99.90;;;14.50;83.66;100817.97;10310185;28;96597;-92
2022/09/04 23:43:17;;;;;;;4.45;3.33;;;16.10;99.90;;;14.51;83.44;100819.63;10372185;28;98293;-92
2022/09/04 23:48:47;;;;;;;3.83;3.35;;;16.10;99.90;;;14.50;83.64;100814.47;10345114;28;96747;-92
2022/09/04 23:54:58;;;;;;;4.75;3.30;;;16.10;99.90;;;14.50;83.84;100817.97;10371843;28;96516;-92
